createdAt,value
2023-03-01T00:00:30.624Z,71.88
2023-03-01T00:01:30.608Z,72.22
2023-03-01T00:02:30.616Z,72.41
2023-03-01T00:03:30.625Z,72.44
2023-03-01T00:04:30.598Z,72.41
2023-03-01T00:05:30.575Z,72.69
2023-03-01T00:06:30.963Z,73.07
2023-03-01T00:07:30.548Z,73.16
2023-03-01T00:08:30.544Z,73.07
2023-03-01T00:09:30.531Z,73.35
2023-03-01T00:10:30.541Z,73.54
2023-03-01T00:11:30.518Z,73.26
2023-03-01T00:12:30.504Z,73.45
2023-03-01T00:13:30.558Z,73.54
2023-03-01T00:14:30.482Z,73.54
2023-03-01T00:15:30.480Z,73.54
2023-03-01T00:16:30.742Z,73.45
2023-03-01T00:17:30.458Z,73.68
2023-03-01T00:18:30.456Z,73.45
2023-03-01T00:19:30.458Z,73.45
2023-03-01T00:20:30.432Z,73.54
2023-03-01T00:21:30.437Z,73.35
2023-03-01T00:22:30.439Z,73.45
2023-03-01T00:23:30.420Z,73.83
2023-03-01T00:24:30.413Z,74.02
2023-03-01T00:25:30.403Z,73.73
2023-03-01T00:26:30.816Z,73.73
2023-03-01T00:27:30.369Z,73.92
2023-03-01T00:28:30.359Z,73.92
2023-03-01T00:29:30.359Z,73.54
2023-03-01T00:30:30.358Z,73.73
2023-03-01T00:31:30.413Z,73.83
2023-03-01T00:32:30.373Z,73.92
2023-03-01T00:33:30.329Z,73.92
2023-03-01T00:34:30.322Z,73.64
2023-03-01T00:35:30.345Z,73.54
2023-03-01T00:36:30.834Z,73.64
2023-03-01T00:37:30.284Z,73.54
2023-03-01T00:38:30.267Z,73.54
2023-03-01T00:39:30.268Z,73.45
2023-03-01T00:40:30.298Z,73.45
2023-03-01T00:41:30.282Z,73.45
2023-03-01T00:42:30.276Z,73.45
2023-03-01T00:43:30.222Z,73.35
2023-03-01T00:44:30.210Z,73.35
2023-03-01T00:45:30.215Z,73.54
2023-03-01T00:46:30.686Z,73.45
2023-03-01T00:47:30.209Z,73.54
2023-03-01T00:48:30.180Z,73.64
2023-03-01T00:49:30.180Z,73.45
2023-03-01T00:50:30.162Z,73.64
2023-03-01T00:51:30.154Z,73.45
2023-03-01T00:52:30.150Z,73.16
2023-03-01T00:53:30.157Z,73.26
2023-03-01T00:54:30.121Z,73.54
2023-03-01T00:55:30.143Z,73.35
2023-03-01T00:56:30.395Z,73.45
2023-03-01T00:57:30.098Z,73.54
2023-03-01T00:58:30.089Z,73.35
2023-03-01T00:59:30.074Z,73.35
2023-03-01T01:00:30.100Z,73.73
2023-03-01T01:01:30.131Z,73.45
2023-03-01T01:02:30.074Z,73.54
2023-03-01T01:03:30.035Z,73.64
2023-03-01T01:04:30.039Z,73.54
2023-03-01T01:05:30.026Z,73.64
2023-03-01T01:06:30.356Z,73.45
2023-03-01T01:07:30.029Z,73.83
2023-03-01T01:08:29.985Z,73.45
2023-03-01T01:09:29.984Z,73.64
2023-03-01T01:10:29.978Z,73.92
2023-03-01T01:11:29.979Z,73.92
2023-03-01T01:12:29.957Z,73.54
2023-03-01T01:13:29.943Z,73.45
2023-03-01T01:14:29.934Z,73.16
2023-03-01T01:15:30.082Z,73.73
2023-03-01T01:16:30.340Z,73.35
2023-03-01T01:17:29.908Z,73.26
2023-03-01T01:18:29.909Z,73.45
2023-03-01T01:19:29.889Z,73.26
2023-03-01T01:20:29.893Z,73.54
2023-03-01T01:21:29.871Z,73.73
2023-03-01T01:22:29.856Z,73.64
2023-03-01T01:23:29.847Z,73.54
2023-03-01T01:24:29.841Z,73.45
2023-03-01T01:25:29.840Z,73.35
2023-03-01T01:26:30.130Z,73.64
2023-03-01T01:27:29.808Z,73.54
2023-03-01T01:28:29.796Z,73.92
2023-03-01T01:29:29.797Z,73.54
2023-03-01T01:30:29.798Z,73.83
2023-03-01T01:31:29.848Z,73.64
2023-03-01T01:32:29.901Z,73.54
2023-03-01T01:33:29.751Z,73.54
2023-03-01T01:34:29.741Z,73.54
2023-03-01T01:35:29.752Z,73.64
2023-03-01T01:36:29.990Z,73.83
2023-03-01T01:37:29.740Z,74.02
2023-03-01T01:38:29.732Z,73.45
2023-03-01T01:39:29.695Z,73.54
2023-03-01T01:40:29.704Z,73.54
2023-03-01T01:41:29.676Z,73.64
2023-03-01T01:42:29.662Z,73.64
2023-03-01T01:43:29.678Z,73.54
2023-03-01T01:44:29.668Z,73.35
2023-03-01T01:45:29.667Z,73.45
2023-03-01T01:46:30.038Z,73.45
2023-03-01T01:47:29.616Z,73.35
2023-03-01T01:48:29.619Z,73.45
2023-03-01T01:49:29.620Z,73.45
2023-03-01T01:50:29.609Z,73.35
2023-03-01T01:51:29.583Z,74.21
2023-03-01T01:52:29.574Z,74.11
2023-03-01T01:53:29.565Z,74.11
2023-03-01T01:54:29.548Z,73.45
2023-03-01T01:55:29.553Z,73.45
2023-03-01T01:56:36.690Z,73.73
2023-03-01T01:58:33.534Z,73.92
2023-03-01T01:59:33.491Z,73.64
2023-03-01T02:01:26.650Z,73.64
2023-03-01T02:02:26.708Z,73.35
2023-03-01T02:04:30.583Z,74.11
2023-03-01T02:05:30.575Z,74.11
2023-03-01T02:07:23.515Z,74.02
2023-03-01T02:08:23.484Z,74.11
2023-03-01T02:10:27.495Z,74.30
2023-03-01T02:11:27.458Z,74.30
2023-03-01T02:13:31.445Z,74.96
2023-03-01T02:14:31.413Z,74.77
2023-03-01T02:15:31.398Z,74.87
2023-03-01T02:16:31.803Z,74.96
2023-03-01T02:17:31.380Z,74.96
2023-03-01T02:18:31.381Z,75.15
2023-03-01T02:19:31.416Z,75.24
2023-03-01T02:20:31.351Z,75.34
2023-03-01T02:21:31.337Z,75.43
2023-03-01T02:22:31.398Z,75.53
2023-03-01T02:23:31.343Z,75.81
2023-03-01T02:24:31.323Z,75.81
2023-03-01T02:25:31.309Z,75.81
2023-03-01T02:26:31.677Z,75.81
2023-03-01T02:27:31.277Z,75.81
2023-03-01T02:28:31.270Z,75.62
2023-03-01T02:29:31.277Z,76.00
2023-03-01T02:30:31.252Z,75.72
2023-03-01T02:31:31.285Z,75.81
2023-03-01T02:32:31.243Z,75.72
2023-03-01T02:33:31.223Z,75.72
2023-03-01T02:34:31.215Z,75.53
2023-03-01T02:35:31.265Z,76.15
2023-03-01T02:36:31.548Z,76.00
2023-03-01T02:37:31.186Z,75.91
2023-03-01T02:38:31.171Z,76.25
2023-03-01T02:39:31.167Z,76.29
2023-03-01T02:40:31.163Z,76.10
2023-03-01T02:41:31.193Z,75.91
2023-03-01T02:42:31.164Z,76.15
2023-03-01T02:43:31.130Z,76.10
2023-03-01T02:44:31.124Z,75.87
2023-03-01T02:45:31.111Z,76.34
2023-03-01T02:46:31.480Z,76.25
2023-03-01T02:47:31.083Z,76.34
2023-03-01T02:48:31.088Z,76.63
2023-03-01T02:49:31.080Z,76.57
2023-03-01T02:50:31.138Z,76.44
2023-03-01T02:51:31.046Z,76.15
2023-03-01T02:52:31.057Z,76.53
2023-03-01T02:53:31.024Z,75.96
2023-03-01T02:54:31.033Z,76.00
2023-03-01T02:55:31.013Z,76.25
2023-03-01T02:56:31.392Z,76.38
2023-03-01T02:57:30.999Z,76.15
2023-03-01T02:58:30.988Z,76.44
2023-03-01T02:59:31.005Z,76.63
2023-03-01T03:00:31.082Z,76.48
2023-03-01T03:01:30.958Z,76.44
2023-03-01T03:02:30.960Z,76.67
2023-03-01T03:03:31.034Z,76.63
2023-03-01T03:04:30.939Z,76.72
2023-03-01T03:05:30.960Z,76.53
2023-03-01T03:06:31.261Z,76.44
2023-03-01T03:07:30.894Z,76.53
2023-03-01T03:08:31.005Z,76.53
2023-03-01T03:09:30.927Z,76.63
2023-03-01T03:10:30.870Z,76.63
2023-03-01T03:11:30.865Z,76.63
2023-03-01T03:12:30.854Z,76.72
2023-03-01T03:13:30.857Z,76.44
2023-03-01T03:14:30.826Z,77.01
2023-03-01T03:15:30.820Z,76.91
2023-03-01T03:16:31.159Z,77.01
2023-03-01T03:17:30.807Z,77.01
2023-03-01T03:18:30.798Z,76.91
2023-03-01T03:19:30.788Z,77.20
2023-03-01T03:20:30.836Z,77.58
2023-03-01T03:21:30.759Z,77.58
2023-03-01T03:22:30.756Z,77.29
2023-03-01T03:23:30.754Z,77.39
2023-03-01T03:24:30.774Z,77.39
2023-03-01T03:25:30.716Z,77.76
2023-03-01T03:26:31.074Z,77.95
2023-03-01T03:27:30.730Z,77.86
2023-03-01T03:28:30.694Z,77.58
2023-03-01T03:29:30.675Z,77.58
2023-03-01T03:30:30.705Z,77.58
2023-03-01T03:31:30.697Z,77.48
2023-03-01T03:32:30.701Z,77.67
2023-03-01T03:33:30.631Z,77.48
2023-03-01T03:34:30.640Z,77.29
2023-03-01T03:35:30.646Z,77.39
2023-03-01T03:36:30.810Z,77.67
2023-03-01T03:37:30.593Z,77.58
2023-03-01T03:38:30.600Z,77.95
2023-03-01T03:39:30.582Z,77.39
2023-03-01T03:40:30.572Z,77.48
2023-03-01T03:41:30.568Z,77.58
2023-03-01T03:42:30.572Z,77.48
2023-03-01T03:43:30.569Z,77.48
2023-03-01T03:44:30.537Z,77.95
2023-03-01T03:45:30.524Z,77.48
2023-03-01T03:46:30.611Z,77.48
2023-03-01T03:47:30.504Z,77.86
2023-03-01T03:48:30.508Z,77.86
2023-03-01T03:49:30.480Z,77.67
2023-03-01T03:50:30.479Z,77.76
2023-03-01T03:51:30.458Z,77.48
2023-03-01T03:52:30.450Z,78.23
2023-03-01T03:53:30.457Z,78.33
2023-03-01T03:54:30.494Z,78.52
2023-03-01T03:55:30.411Z,78.52
2023-03-01T03:56:30.850Z,78.05
2023-03-01T03:57:30.402Z,78.23
2023-03-01T03:58:30.416Z,78.23
2023-03-01T03:59:30.414Z,78.23
2023-03-01T04:00:30.404Z,78.23
2023-03-01T04:01:30.413Z,78.05
2023-03-01T04:02:30.393Z,78.14
2023-03-01T04:03:30.333Z,78.71
2023-03-01T04:04:30.354Z,78.71
2023-03-01T04:05:30.330Z,78.61
2023-03-01T04:06:30.770Z,78.80
2023-03-01T04:07:30.335Z,78.71
2023-03-01T04:08:30.317Z,78.71
2023-03-01T04:09:30.439Z,78.90
2023-03-01T04:10:30.280Z,78.42
2023-03-01T04:11:30.286Z,78.90
2023-03-01T04:12:30.271Z,79.09
2023-03-01T04:13:30.291Z,78.71
2023-03-01T04:14:30.231Z,78.61
2023-03-01T04:15:30.216Z,78.80
2023-03-01T04:16:30.601Z,78.90
2023-03-01T04:17:30.208Z,79.09
2023-03-01T04:18:30.232Z,78.99
2023-03-01T04:19:30.197Z,79.18
2023-03-01T04:20:30.209Z,78.99
2023-03-01T04:21:30.152Z,78.71
2023-03-01T04:22:30.232Z,78.80
2023-03-01T04:23:30.135Z,78.80
2023-03-01T04:24:30.140Z,78.80
2023-03-01T04:25:30.130Z,78.99
2023-03-01T04:26:30.425Z,78.71
2023-03-01T04:27:30.110Z,78.90
2023-03-01T04:28:30.091Z,79.47
2023-03-01T04:29:30.156Z,79.37
2023-03-01T04:30:30.082Z,79.28
2023-03-01T04:31:30.108Z,79.18
2023-03-01T04:32:30.124Z,79.56
2023-03-01T04:33:30.045Z,79.28
2023-03-01T04:34:30.022Z,79.09
2023-03-01T04:35:30.077Z,80.04
2023-03-01T04:36:30.656Z,79.85
2023-03-01T04:37:30.025Z,79.94
2023-03-01T04:38:30.005Z,80.41
2023-03-01T04:39:30.010Z,80.13
2023-03-01T04:40:29.971Z,80.04
2023-03-01T04:41:29.968Z,79.66
2023-03-01T04:42:29.966Z,79.66
2023-03-01T04:43:29.952Z,80.13
2023-03-01T04:44:29.933Z,79.85
2023-03-01T04:45:29.916Z,80.32
2023-03-01T04:46:30.363Z,80.22
2023-03-01T04:47:29.926Z,80.04
2023-03-01T04:48:29.911Z,80.13
2023-03-01T04:49:29.877Z,79.85
2023-03-01T04:50:29.881Z,80.22
2023-03-01T04:51:29.860Z,80.04
2023-03-01T04:52:29.859Z,80.32
2023-03-01T04:53:29.843Z,80.04
2023-03-01T04:54:29.840Z,79.85
2023-03-01T04:55:29.813Z,80.04
2023-03-01T04:56:30.175Z,80.04
2023-03-01T04:57:29.791Z,80.04
2023-03-01T04:58:29.797Z,80.04
2023-03-01T04:59:29.802Z,80.51
2023-03-01T05:00:29.782Z,80.51
2023-03-01T05:01:29.786Z,80.51
2023-03-01T05:02:29.821Z,80.60
2023-03-01T05:03:29.765Z,79.75
2023-03-01T05:04:29.784Z,79.94
2023-03-01T05:05:29.740Z,80.22
2023-03-01T05:06:30.071Z,80.32
2023-03-01T05:07:29.681Z,80.13
2023-03-01T05:08:29.684Z,80.04
2023-03-01T05:09:29.670Z,80.13
2023-03-01T05:10:29.662Z,79.85
2023-03-01T05:11:29.692Z,80.13
2023-03-01T05:12:29.654Z,80.04
2023-03-01T05:13:29.669Z,80.32
2023-03-01T05:14:29.634Z,80.41
2023-03-01T05:15:29.667Z,80.41
2023-03-01T05:16:29.919Z,80.32
2023-03-01T05:17:29.610Z,80.13
2023-03-01T05:18:29.613Z,79.85
2023-03-01T05:19:29.605Z,80.04
2023-03-01T05:20:29.613Z,79.94
2023-03-01T05:21:29.550Z,80.32
2023-03-01T05:22:29.556Z,80.13
2023-03-01T05:23:29.564Z,80.13
2023-03-01T05:24:29.544Z,80.22
2023-03-01T05:25:29.508Z,80.04
2023-03-01T05:26:29.505Z,79.94
2023-03-01T05:27:29.482Z,80.22
2023-03-01T05:28:29.502Z,80.51
2023-03-01T05:29:29.483Z,80.32
2023-03-01T05:30:29.479Z,80.51
2023-03-01T05:31:29.580Z,80.32
2023-03-01T05:32:29.449Z,80.79
2023-03-01T05:33:29.437Z,80.51
2023-03-01T05:34:29.448Z,80.79
2023-03-01T05:35:29.442Z,80.79
2023-03-01T05:36:29.743Z,80.60
2023-03-01T05:37:29.383Z,79.94
2023-03-01T05:38:29.411Z,80.51
2023-03-01T05:39:29.376Z,80.41
2023-03-01T05:40:29.382Z,80.51
2023-03-01T05:41:29.357Z,80.51
2023-03-01T05:42:29.344Z,80.22
2023-03-01T05:43:29.325Z,80.60
2023-03-01T05:44:29.316Z,80.13
2023-03-01T05:45:29.314Z,80.41
2023-03-01T05:46:29.613Z,80.22
2023-03-01T05:47:29.312Z,80.41
2023-03-01T05:48:29.269Z,80.51
2023-03-01T05:49:29.334Z,79.94
2023-03-01T05:50:29.286Z,80.51
2023-03-01T05:51:29.272Z,80.79
2023-03-01T05:52:29.251Z,80.88
2023-03-01T05:53:29.233Z,80.60
2023-03-01T05:54:29.248Z,80.98
2023-03-01T05:55:29.302Z,80.79
2023-03-01T05:56:29.543Z,80.69
2023-03-01T05:57:29.189Z,80.69
2023-03-01T05:58:29.202Z,80.98
2023-03-01T05:59:29.182Z,80.88
2023-03-01T06:00:29.156Z,80.98
2023-03-01T06:01:29.207Z,80.69
2023-03-01T06:02:29.168Z,80.69
2023-03-01T06:03:29.134Z,80.69
2023-03-01T06:04:29.133Z,80.98
2023-03-01T06:05:29.250Z,81.26
2023-03-01T06:06:29.434Z,80.69
2023-03-01T06:07:29.095Z,80.69
2023-03-01T06:08:29.116Z,80.98
2023-03-01T06:09:29.119Z,80.69
2023-03-01T06:10:29.099Z,80.69
2023-03-01T06:11:29.101Z,80.98
2023-03-01T06:12:29.062Z,80.88
2023-03-01T06:13:29.050Z,81.45
2023-03-01T06:14:29.072Z,81.83
2023-03-01T06:15:29.103Z,80.79
2023-03-01T06:16:29.442Z,80.69
2023-03-01T06:17:29.008Z,80.88
2023-03-01T06:18:28.965Z,80.88
2023-03-01T06:19:28.964Z,80.98
2023-03-01T06:20:29.091Z,80.88
2023-03-01T06:21:28.963Z,80.88
2023-03-01T06:22:28.941Z,80.98
2023-03-01T06:23:28.919Z,81.55
2023-03-01T06:24:28.911Z,81.45
2023-03-01T06:25:28.908Z,81.93
2023-03-01T06:26:29.353Z,81.93
2023-03-01T06:27:28.884Z,82.12
2023-03-01T06:28:28.877Z,81.93
2023-03-01T06:29:28.877Z,81.64
2023-03-01T06:30:28.905Z,81.45
2023-03-01T06:31:28.939Z,80.98
2023-03-01T06:32:28.933Z,80.51
2023-03-01T06:33:28.822Z,80.51
2023-03-01T06:34:28.826Z,80.41
2023-03-01T06:35:28.846Z,80.04
2023-03-01T06:36:29.133Z,80.22
2023-03-01T06:37:28.778Z,80.04
2023-03-01T06:38:28.784Z,79.75
2023-03-01T06:39:28.748Z,79.94
2023-03-01T06:40:28.768Z,79.09
2023-03-01T06:41:28.760Z,79.18
2023-03-01T06:42:28.765Z,79.56
2023-03-01T06:43:28.712Z,79.37
2023-03-01T06:44:28.703Z,79.85
2023-03-01T06:45:28.709Z,79.94
2023-03-01T06:46:29.090Z,80.41
2023-03-01T06:47:28.693Z,80.13
2023-03-01T06:48:28.737Z,80.32
2023-03-01T06:49:28.668Z,79.94
2023-03-01T06:50:28.703Z,80.32
2023-03-01T06:51:28.646Z,80.22
2023-03-01T06:52:28.652Z,80.04
2023-03-01T06:53:28.632Z,80.41
2023-03-01T06:54:28.611Z,80.60
2023-03-01T06:55:28.627Z,80.04
2023-03-01T06:56:28.817Z,79.94
2023-03-01T06:57:28.579Z,80.41
2023-03-01T06:58:28.628Z,80.07
2023-03-01T06:59:28.601Z,80.07
2023-03-01T07:00:28.621Z,79.69
2023-03-01T07:01:28.604Z,79.69
2023-03-01T07:02:28.577Z,80.07
2023-03-01T07:03:28.525Z,79.41
2023-03-01T07:04:28.525Z,79.41
2023-03-01T07:05:28.514Z,78.94
2023-03-01T07:06:28.800Z,79.13
2023-03-01T07:07:28.488Z,78.85
2023-03-01T07:08:28.499Z,78.94
2023-03-01T07:09:28.522Z,78.65
2023-03-01T07:10:28.450Z,78.75
2023-03-01T07:11:28.506Z,79.22
2023-03-01T07:12:28.421Z,78.85
2023-03-01T07:13:28.422Z,78.65
2023-03-01T07:14:28.412Z,78.46
2023-03-01T07:15:28.413Z,78.75
2023-03-01T07:16:28.538Z,78.85
2023-03-01T07:17:28.387Z,78.56
2023-03-01T07:18:28.382Z,78.56
2023-03-01T07:19:28.377Z,78.27
2023-03-01T07:20:28.370Z,78.46
2023-03-01T07:21:28.343Z,78.18
2023-03-01T07:22:28.346Z,77.70
2023-03-01T07:23:28.334Z,77.84
2023-03-01T07:24:28.327Z,77.75
2023-03-01T07:25:28.304Z,77.46
2023-03-01T07:26:28.658Z,77.37
2023-03-01T07:27:28.319Z,77.56
2023-03-01T07:28:28.304Z,77.08
2023-03-01T07:29:28.306Z,76.89
2023-03-01T07:30:28.408Z,76.89
2023-03-01T07:31:28.249Z,76.70
2023-03-01T07:32:28.313Z,77.08
2023-03-01T07:33:28.242Z,76.99
2023-03-01T07:34:28.250Z,76.99
2023-03-01T07:35:28.278Z,76.70
2023-03-01T07:36:28.219Z,77.18
2023-03-01T07:37:28.212Z,76.80
2023-03-01T07:38:28.197Z,77.27
2023-03-01T07:39:28.184Z,77.08
2023-03-01T07:40:28.219Z,77.27
2023-03-01T07:41:28.175Z,77.08
2023-03-01T07:42:28.199Z,76.51
2023-03-01T07:43:28.217Z,76.89
2023-03-01T07:44:28.136Z,76.51
2023-03-01T07:45:28.169Z,76.32
2023-03-01T07:46:28.119Z,76.80
2023-03-01T07:47:28.134Z,76.23
2023-03-01T07:48:28.159Z,76.23
2023-03-01T07:49:28.123Z,76.32
2023-03-01T07:50:28.199Z,75.95
2023-03-01T07:51:28.104Z,76.23
2023-03-01T07:52:28.077Z,75.66
2023-03-01T07:53:28.052Z,75.60
2023-03-01T07:54:28.055Z,76.08
2023-03-01T07:55:28.091Z,76.17
2023-03-01T07:56:28.101Z,76.40
2023-03-01T07:57:28.074Z,75.93
2023-03-01T07:58:28.058Z,75.11
2023-03-01T07:59:28.025Z,73.50
2023-03-01T08:00:28.174Z,72.02
2023-03-01T08:01:28.118Z,70.03
2023-03-01T08:02:28.015Z,69.21
2023-03-01T08:03:28.054Z,67.06
2023-03-01T08:04:28.005Z,65.16
2023-03-01T08:05:28.012Z,63.57
2023-03-01T08:06:28.001Z,61.99
2023-03-01T08:07:27.981Z,60.18
2023-03-01T08:08:27.995Z,58.59
2023-03-01T08:09:28.013Z,57.26
2023-03-01T08:10:27.982Z,55.87
2023-03-01T08:11:28.009Z,54.44
2023-03-01T08:12:28.008Z,53.42
2023-03-01T08:13:28.006Z,52.75
2023-03-01T08:14:28.014Z,51.16
2023-03-01T08:15:28.011Z,50.21
2023-03-01T08:16:28.062Z,50.01
2023-03-01T08:17:28.056Z,48.32
2023-03-01T08:18:28.063Z,48.04
2023-03-01T08:19:28.023Z,47.08
2023-03-01T08:20:28.035Z,46.42
2023-03-01T08:21:28.059Z,46.23
2023-03-01T08:22:28.047Z,46.34
2023-03-01T08:23:28.080Z,46.06
2023-03-01T08:24:28.076Z,45.68
2023-03-01T08:25:28.082Z,45.51
2023-03-01T08:26:28.088Z,44.65
2023-03-01T08:27:28.088Z,44.74
2023-03-01T08:28:28.111Z,43.98
2023-03-01T08:29:28.131Z,43.05
2023-03-01T08:30:28.109Z,42.38
2023-03-01T08:31:28.153Z,42.10
2023-03-01T08:32:28.301Z,41.43
2023-03-01T08:33:28.293Z,41.71
2023-03-01T08:34:28.179Z,41.52
2023-03-01T08:35:28.201Z,41.74
2023-03-01T08:36:28.238Z,40.97
2023-03-01T08:37:28.211Z,40.59
2023-03-01T08:38:28.184Z,40.30
2023-03-01T08:39:28.262Z,40.30
2023-03-01T08:40:28.200Z,39.92
2023-03-01T08:41:28.230Z,39.83
2023-03-01T08:42:28.230Z,40.03
2023-03-01T08:43:28.242Z,39.65
2023-03-01T08:44:28.262Z,39.65
2023-03-01T08:45:28.333Z,39.65
2023-03-01T08:46:28.267Z,39.18
2023-03-01T08:47:28.281Z,39.08
2023-03-01T08:48:28.294Z,38.98
2023-03-01T08:49:28.310Z,38.51
2023-03-01T08:50:28.310Z,38.41
2023-03-01T08:51:28.340Z,38.12
2023-03-01T08:52:28.335Z,38.12
2023-03-01T08:53:28.360Z,37.82
2023-03-01T08:54:28.412Z,37.82
2023-03-01T08:55:28.376Z,37.99
2023-03-01T08:56:28.710Z,38.47
2023-03-01T08:57:28.387Z,38.45
2023-03-01T08:58:28.412Z,39.22
2023-03-01T08:59:28.417Z,39.50
2023-03-01T09:01:40.482Z,39.39
2023-03-01T09:02:40.452Z,39.95
2023-03-01T09:04:45.488Z,39.58
2023-03-01T09:05:45.490Z,39.94
2023-03-01T09:07:50.762Z,40.03
2023-03-01T09:08:50.644Z,40.41
2023-03-01T09:10:54.664Z,40.89
2023-03-01T09:11:54.764Z,40.51
2023-03-01T09:13:58.708Z,40.70
2023-03-01T09:14:58.691Z,40.51
2023-03-01T09:17:02.726Z,40.58
2023-03-01T09:18:02.705Z,41.06
2023-03-01T09:20:06.759Z,40.87
2023-03-01T09:21:06.718Z,41.16
2023-03-01T09:23:11.263Z,41.23
2023-03-01T09:24:10.736Z,41.52
2023-03-01T09:26:14.818Z,41.61
2023-03-01T09:27:14.807Z,41.99
2023-03-01T09:29:19.314Z,42.85
2023-03-01T09:30:19.290Z,42.83
2023-03-01T09:31:19.342Z,43.02
2023-03-01T09:32:19.357Z,43.30
2023-03-01T09:33:20.487Z,43.11
2023-03-01T09:34:19.283Z,43.11
2023-03-01T09:35:19.274Z,43.40
2023-03-01T09:36:19.276Z,43.68
2023-03-01T09:37:19.274Z,43.59
2023-03-01T09:38:19.280Z,43.87
2023-03-01T09:39:19.277Z,44.35
2023-03-01T09:40:19.281Z,44.26
2023-03-01T09:41:19.266Z,43.87
2023-03-01T09:42:19.288Z,43.30
2023-03-01T09:43:19.266Z,43.21
2023-03-01T09:44:19.262Z,43.30
2023-03-01T09:45:19.261Z,43.57
2023-03-01T09:46:19.272Z,43.57
2023-03-01T09:47:19.250Z,43.57
2023-03-01T09:48:34.278Z,43.47
2023-03-01T09:49:20.467Z,44.04
2023-03-01T09:50:19.268Z,44.23
2023-03-01T09:51:19.291Z,44.33
2023-03-01T09:52:19.252Z,43.76
2023-03-01T09:53:19.239Z,43.95
2023-03-01T09:54:19.247Z,44.23
2023-03-01T09:55:19.272Z,44.52
2023-03-01T09:56:19.230Z,44.33
2023-03-01T09:57:19.225Z,44.23
2023-03-01T09:58:19.221Z,44.13
2023-03-01T09:59:22.241Z,44.26
2023-03-01T10:00:26.224Z,44.23
2023-03-01T10:01:19.206Z,44.61
2023-03-01T10:03:19.207Z,44.45
2023-03-01T10:04:19.311Z,44.06
2023-03-01T10:05:19.198Z,44.16
2023-03-01T10:06:33.885Z,44.13
2023-03-01T10:07:19.184Z,44.23
2023-03-01T10:08:19.299Z,43.95
2023-03-01T10:09:19.178Z,44.04
2023-03-01T10:10:19.231Z,43.85
2023-03-01T10:11:20.816Z,43.47
2023-03-01T10:12:19.170Z,43.85
2023-03-01T10:13:19.170Z,43.95
2023-03-01T10:14:19.167Z,43.87
2023-03-01T10:15:19.184Z,43.87
2023-03-01T10:16:19.173Z,44.06
2023-03-01T10:17:20.391Z,43.30
2023-03-01T10:18:19.169Z,43.49
2023-03-01T10:19:19.139Z,42.99
2023-03-01T10:20:19.725Z,43.09
2023-03-01T10:21:19.129Z,43.09
2023-03-01T10:22:25.727Z,43.47
2023-03-01T10:23:19.131Z,43.47
2023-03-01T10:24:19.131Z,43.47
2023-03-01T10:25:19.119Z,43.57
2023-03-01T10:26:19.142Z,43.57
2023-03-01T10:27:19.102Z,43.38
2023-03-01T10:28:19.115Z,43.66
2023-03-01T10:29:19.200Z,43.95
2023-03-01T10:30:19.162Z,44.52
2023-03-01T10:31:19.180Z,44.61
2023-03-01T10:32:19.160Z,44.90
2023-03-01T10:33:19.100Z,44.71
2023-03-01T10:34:25.752Z,45.18
2023-03-01T10:35:19.110Z,44.90
2023-03-01T10:36:19.090Z,45.37
2023-03-01T10:37:19.066Z,45.37
2023-03-01T10:38:19.077Z,46.23
2023-03-01T10:39:19.067Z,46.23
2023-03-01T10:40:19.055Z,45.95
2023-03-01T10:41:19.053Z,46.14
2023-03-01T10:42:19.052Z,46.14
2023-03-01T10:43:19.041Z,46.04
2023-03-01T10:44:19.036Z,45.95
2023-03-01T10:45:19.061Z,46.01
2023-03-01T10:46:19.043Z,46.30
2023-03-01T10:47:19.028Z,46.40
2023-03-01T10:48:19.016Z,46.40
2023-03-01T10:49:19.017Z,46.01
2023-03-01T10:50:19.004Z,46.40
2023-03-01T10:51:19.014Z,46.30
2023-03-01T10:52:19.002Z,46.59
2023-03-01T10:53:18.996Z,46.59
2023-03-01T10:54:19.078Z,46.49
2023-03-01T10:55:19.012Z,46.01
2023-03-01T10:56:18.979Z,45.83
2023-03-01T10:57:18.980Z,46.11
2023-03-01T10:58:18.983Z,45.42
2023-03-01T10:59:18.980Z,46.19
2023-03-01T11:00:18.965Z,45.80
2023-03-01T11:01:19.047Z,46.37
2023-03-01T11:02:24.877Z,46.47
2023-03-01T11:03:21.225Z,46.28
2023-03-01T11:04:18.973Z,46.94
2023-03-01T11:05:18.955Z,46.94
2023-03-01T11:06:18.941Z,47.04
2023-03-01T11:07:18.931Z,47.33
2023-03-01T11:08:18.923Z,47.04
2023-03-01T11:09:18.918Z,46.66
2023-03-01T11:10:18.925Z,47.04
2023-03-01T11:11:18.917Z,47.42
2023-03-01T11:12:18.897Z,47.13
2023-03-01T11:13:18.961Z,47.52
2023-03-01T11:14:26.751Z,47.52
2023-03-01T11:15:18.891Z,47.52
2023-03-01T11:16:18.969Z,47.52
2023-03-01T11:17:18.887Z,47.52
2023-03-01T11:18:21.736Z,47.80
2023-03-01T11:19:18.874Z,47.80
2023-03-01T11:20:18.871Z,47.87
2023-03-01T11:21:18.864Z,47.68
2023-03-01T11:22:39.861Z,47.58
2023-03-01T11:23:18.887Z,47.30
2023-03-01T11:24:18.850Z,47.68
2023-03-01T11:25:18.830Z,47.39
2023-03-01T11:26:39.835Z,47.77
2023-03-01T11:27:18.824Z,47.77
2023-03-01T11:28:18.819Z,48.16
2023-03-01T11:29:18.814Z,48.44
2023-03-01T11:30:18.814Z,48.35
2023-03-01T11:31:20.795Z,47.97
2023-03-01T11:32:18.897Z,47.68
2023-03-01T11:33:18.805Z,47.77
2023-03-01T11:34:18.857Z,47.49
2023-03-01T11:35:18.787Z,47.58
2023-03-01T11:36:18.858Z,47.58
2023-03-01T11:37:18.788Z,47.68
2023-03-01T11:38:18.783Z,47.87
2023-03-01T11:39:18.766Z,47.77
2023-03-01T11:40:18.749Z,47.87
2023-03-01T11:41:18.758Z,47.30
2023-03-01T11:42:30.235Z,47.58
2023-03-01T11:43:18.732Z,47.58
2023-03-01T11:44:18.724Z,47.39
2023-03-01T11:45:18.735Z,47.77
2023-03-01T11:46:18.782Z,47.02
2023-03-01T11:47:46.951Z,47.02
2023-03-01T11:48:56.282Z,46.83
2023-03-01T11:49:33.538Z,47.77
2023-03-01T11:50:18.705Z,47.77
2023-03-01T11:51:18.703Z,46.83
2023-03-01T11:52:18.708Z,47.20
2023-03-01T11:53:18.682Z,47.11
2023-03-01T11:54:18.685Z,47.02
2023-03-01T11:55:18.741Z,47.20
2023-03-01T11:56:18.676Z,47.39
2023-03-01T11:57:18.657Z,46.92
2023-03-01T11:58:18.678Z,46.73
2023-03-01T11:59:18.676Z,46.83
2023-03-01T12:00:18.659Z,46.66
2023-03-01T12:01:18.646Z,47.89
2023-03-01T12:02:18.702Z,47.61
2023-03-01T12:03:18.660Z,47.33
2023-03-01T12:04:18.683Z,47.89
2023-03-01T12:05:18.621Z,47.04
2023-03-01T12:06:18.607Z,46.37
2023-03-01T12:07:18.612Z,46.28
2023-03-01T12:08:18.596Z,45.90
2023-03-01T12:09:18.597Z,45.52
2023-03-01T12:10:18.612Z,46.75
2023-03-01T12:11:18.582Z,57.87
2023-03-01T12:12:18.578Z,63.32
2023-03-01T12:13:18.579Z,60.18
2023-03-01T12:14:18.569Z,53.91
2023-03-01T12:15:18.564Z,49.15
2023-03-01T12:16:28.800Z,46.68
2023-03-01T12:17:18.618Z,45.45
2023-03-01T12:18:18.549Z,44.68
2023-03-01T12:19:18.551Z,44.02
2023-03-01T12:20:18.532Z,43.54
2023-03-01T12:21:18.533Z,43.35
2023-03-01T12:22:18.530Z,43.64
2023-03-01T12:23:25.230Z,43.43
2023-03-01T12:24:18.513Z,43.52
2023-03-01T12:25:39.531Z,43.24
2023-03-01T12:26:18.517Z,43.52
2023-03-01T12:27:21.217Z,43.33
2023-03-01T12:28:18.506Z,43.80
2023-03-01T12:29:18.532Z,43.52
2023-03-01T12:30:18.490Z,43.33
2023-03-01T12:31:18.527Z,42.95
2023-03-01T12:32:18.557Z,42.95
2023-03-01T12:33:33.425Z,42.95
2023-03-01T12:34:18.464Z,43.24
2023-03-01T12:35:18.462Z,43.05
2023-03-01T12:36:21.428Z,42.67
2023-03-01T12:37:25.261Z,42.57
2023-03-01T12:38:18.445Z,42.76
2023-03-01T12:39:20.289Z,42.67
2023-03-01T12:40:18.471Z,42.38
2023-03-01T12:41:18.426Z,42.19
2023-03-01T12:42:18.451Z,41.72
2023-03-01T12:43:18.442Z,40.95
2023-03-01T12:44:18.418Z,40.29
2023-03-01T12:45:18.409Z,40.48
2023-03-01T12:46:18.404Z,40.86
2023-03-01T12:47:18.405Z,40.77
2023-03-01T12:48:18.393Z,40.67
2023-03-01T12:49:18.385Z,40.67
2023-03-01T12:50:18.387Z,40.48
2023-03-01T12:51:39.818Z,40.29
2023-03-01T12:52:26.069Z,40.39
2023-03-01T12:54:22.392Z,40.48
2023-03-01T12:55:22.368Z,40.39
2023-03-01T12:57:26.336Z,40.48
2023-03-01T12:58:29.885Z,40.29
2023-03-01T13:00:30.335Z,39.91
2023-03-01T13:01:30.288Z,39.81
2023-03-01T13:03:34.425Z,39.72
2023-03-01T13:04:35.324Z,39.62
2023-03-01T13:06:43.476Z,39.91
2023-03-01T13:07:38.305Z,39.91
2023-03-01T13:09:42.290Z,40.29
2023-03-01T13:10:42.284Z,40.39
2023-03-01T13:12:46.297Z,40.79
2023-03-01T13:13:46.272Z,40.69
2023-03-01T13:15:50.279Z,40.22
2023-03-01T13:16:50.459Z,39.55
2023-03-01T13:18:54.280Z,38.29
2023-03-01T13:19:54.275Z,37.92